TimeMST,TemperatureF,Dew PointF,Humidity,Sea Level PressureIn,VisibilityMPH,Wind Direction,Wind SpeedMPH,Gust SpeedMPH,PrecipitationIn,Events,Conditions,WindDirDegrees,DateUTC
12:53 AM,12.9,9.0,84,30.28,0.2,Calm,Calm,-,N/A,Fog,Light Freezing Fog,0,2012-11-27 07:53:00
1:53 AM,12.0,9.0,88,30.27,0.2,Calm,Calm,-,N/A,Fog,Light Freezing Fog,0,2012-11-27 08:53:00
2:53 AM,10.0,6.1,84,30.27,0.2,Calm,Calm,-,N/A,Fog,Light Freezing Fog,0,2012-11-27 09:53:00
3:19 AM,8.6,3.2,79,30.09,2.0,Calm,Calm,-,N/A,,Haze,0,2012-11-27 10:19:00
3:27 AM,8.6,3.2,79,30.09,1.0,Calm,Calm,-,N/A,,Haze,0,2012-11-27 10:27:00
3:35 AM,-9999,-9999,N/A,30.09,0.5,Calm,Calm,-,N/A,Fog,Fog,0,2012-11-27 10:35:00
3:48 AM,8.6,3.2,79,30.09,1.2,Calm,Calm,-,N/A,,Haze,0,2012-11-27 10:48:00
3:53 AM,8.1,3.0,80,30.27,5.0,Calm,Calm,-,N/A,,Haze,0,2012-11-27 10:53:00
4:53 AM,8.1,3.0,80,30.26,10.0,Calm,Calm,-,N/A,,Clear,0,2012-11-27 11:53:00
5:53 AM,-9999,-9999,N/A,30.07,10.0,Calm,Calm,-,N/A,,Clear,0,2012-11-27 12:53:00
6:53 AM,-9999,-9999,N/A,30.08,10.0,Calm,Calm,-,N/A,,Clear,0,2012-11-27 13:53:00
7:53 AM,-9999,-9999,N/A,30.10,10.0,Calm,Calm,-,N/A,,Clear,0,2012-11-27 14:53:00
8:53 AM,15.1,10.9,84,30.30,9.0,Calm,Calm,-,N/A,,Clear,0,2012-11-27 15:53:00
9:53 AM,21.9,19.9,92,30.30,7.0,Calm,Calm,-,N/A,,Clear,0,2012-11-27 16:53:00
10:53 AM,28.9,25.0,85,30.27,10.0,Calm,Calm,-,N/A,,Clear,0,2012-11-27 17:53:00
11:53 AM,37.0,26.1,65,30.22,10.0,Calm,Calm,-,N/A,,Clear,0,2012-11-27 18:53:00
12:53 PM,43.0,27.0,53,30.19,10.0,NNW,10.4,-,N/A,,Clear,340,2012-11-27 19:53:00
1:53 PM,45.0,26.1,48,30.19,10.0,NNW,16.1,-,N/A,,Clear,330,2012-11-27 20:53:00
2:53 PM,44.1,23.0,43,30.22,10.0,NW,13.8,-,N/A,,Clear,310,2012-11-27 21:53:00
3:53 PM,43.0,24.1,47,30.25,10.0,NW,10.4,-,N/A,,Clear,310,2012-11-27 22:53:00
4:53 PM,36.0,24.1,62,30.29,10.0,West,3.5,-,N/A,,Clear,270,2012-11-27 23:53:00
5:53 PM,32.0,23.0,69,30.15,10.0,Calm,Calm,-,N/A,,Clear,0,2012-11-28 00:53:00
6:53 PM,30.0,24.1,79,30.17,10.0,East,6.9,-,N/A,,Clear,90,2012-11-28 01:53:00
7:53 PM,27.0,21.9,81,30.18,10.0,ESE,4.6,-,N/A,,Clear,120,2012-11-28 02:53:00
8:53 PM,30.0,21.9,72,30.32,10.0,Calm,Calm,-,N/A,,Clear,0,2012-11-28 03:53:00
9:53 PM,26.1,21.0,81,30.31,10.0,South,4.6,-,N/A,,Clear,180,2012-11-28 04:53:00
10:53 PM,23.0,19.0,85,30.29,10.0,Calm,Calm,-,N/A,,Clear,0,2012-11-28 05:53:00
11:53 PM,21.9,18.0,85,30.25,10.0,Calm,Calm,-,N/A,,Clear,0,2012-11-28 06:53:00